sensor_id;sensor_type;location;lat;lon;timestamp;P1;durP1;ratioP1;P2;durP2;ratioP2
66609;SDS011;53468;48.276;14.416;2023-05-15T00:00:10;9.60;;;5.85;;
66609;SDS011;53468;48.276;14.416;2023-05-15T00:05:37;8.88;;;5.68;;
66609;SDS011;53468;48.276;14.416;2023-05-15T00:10:50;10.52;;;6.60;;
66609;SDS011;53468;48.276;14.416;2023-05-15T00:16:05;10.40;;;6.38;;
66609;SDS011;53468;48.276;14.416;2023-05-15T00:22:00;10.45;;;5.70;;
66609;SDS011;53468;48.276;14.416;2023-05-15T00:27:28;11.15;;;6.15;;
66609;SDS011;53468;48.276;14.416;2023-05-15T00:32:50;12.43;;;7.47;;
66609;SDS011;53468;48.276;14.416;2023-05-15T00:38:12;13.07;;;7.90;;
66609;SDS011;53468;48.276;14.416;2023-05-15T00:43:33;11.57;;;7.18;;
66609;SDS011;53468;48.276;14.416;2023-05-15T00:54:39;15.20;;;9.00;;
66609;SDS011;53468;48.276;14.416;2023-05-15T01:00:14;15.70;;;9.68;;
66609;SDS011;53468;48.276;14.416;2023-05-15T01:05:25;16.85;;;8.60;;
66609;SDS011;53468;48.276;14.416;2023-05-15T01:10:45;16.08;;;8.48;;
66609;SDS011;53468;48.276;14.416;2023-05-15T01:16:08;14.98;;;8.35;;
66609;SDS011;53468;48.276;14.416;2023-05-15T01:21:39;9.32;;;6.18;;
66609;SDS011;53468;48.276;14.416;2023-05-15T01:32:40;10.48;;;5.60;;
66609;SDS011;53468;48.276;14.416;2023-05-15T01:37:56;13.88;;;6.38;;
66609;SDS011;53468;48.276;14.416;2023-05-15T01:43:20;8.70;;;5.05;;
66609;SDS011;53468;48.276;14.416;2023-05-15T01:48:43;10.13;;;5.82;;
66609;SDS011;53468;48.276;14.416;2023-05-15T01:54:01;9.15;;;5.90;;
66609;SDS011;53468;48.276;14.416;2023-05-15T01:59:31;8.93;;;6.43;;
66609;SDS011;53468;48.276;14.416;2023-05-15T02:04:45;9.45;;;6.05;;
66609;SDS011;53468;48.276;14.416;2023-05-15T02:10:13;13.63;;;7.25;;
66609;SDS011;53468;48.276;14.416;2023-05-15T02:21:20;10.07;;;6.35;;
66609;SDS011;53468;48.276;14.416;2023-05-15T02:26:53;10.57;;;6.75;;
66609;SDS011;53468;48.276;14.416;2023-05-15T02:38:15;13.75;;;6.38;;
66609;SDS011;53468;48.276;14.416;2023-05-15T02:43:52;7.95;;;5.07;;
66609;SDS011;53468;48.276;14.416;2023-05-15T02:49:27;8.00;;;4.45;;
66609;SDS011;53468;48.276;14.416;2023-05-15T02:54:40;5.20;;;3.53;;
66609;SDS011;53468;48.276;14.416;2023-05-15T02:59:52;8.38;;;4.10;;
66609;SDS011;53468;48.276;14.416;2023-05-15T03:05:12;6.68;;;4.40;;
66609;SDS011;53468;48.276;14.416;2023-05-15T03:10:41;8.88;;;4.00;;
66609;SDS011;53468;48.276;14.416;2023-05-15T03:16:24;7.50;;;5.07;;
66609;SDS011;53468;48.276;14.416;2023-05-15T03:28:06;8.57;;;5.78;;
66609;SDS011;53468;48.276;14.416;2023-05-15T03:33:42;10.02;;;5.75;;
66609;SDS011;53468;48.276;14.416;2023-05-15T03:38:50;9.02;;;6.18;;
66609;SDS011;53468;48.276;14.416;2023-05-15T03:55:42;12.15;;;6.38;;
66609;SDS011;53468;48.276;14.416;2023-05-15T04:01:11;8.48;;;5.68;;
66609;SDS011;53468;48.276;14.416;2023-05-15T04:06:22;8.55;;;5.32;;
66609;SDS011;53468;48.276;14.416;2023-05-15T04:11:37;9.25;;;5.30;;
66609;SDS011;53468;48.276;14.416;2023-05-15T04:17:07;8.55;;;5.13;;
66609;SDS011;53468;48.276;14.416;2023-05-15T04:22:58;8.60;;;5.40;;
66609;SDS011;53468;48.276;14.416;2023-05-15T04:28:42;10.20;;;6.40;;
66609;SDS011;53468;48.276;14.416;2023-05-15T04:33:50;10.23;;;6.47;;
66609;SDS011;53468;48.276;14.416;2023-05-15T04:39:21;9.75;;;6.30;;
66609;SDS011;53468;48.276;14.416;2023-05-15T04:44:43;11.30;;;6.93;;
66609;SDS011;53468;48.276;14.416;2023-05-15T04:50:27;12.20;;;7.40;;
66609;SDS011;53468;48.276;14.416;2023-05-15T04:55:54;8.32;;;5.68;;
66609;SDS011;53468;48.276;14.416;2023-05-15T05:01:02;8.68;;;6.03;;
66609;SDS011;53468;48.276;14.416;2023-05-15T05:06:19;10.55;;;6.18;;
66609;SDS011;53468;48.276;14.416;2023-05-15T05:11:57;8.02;;;5.70;;
66609;SDS011;53468;48.276;14.416;2023-05-15T05:17:05;9.45;;;6.07;;
66609;SDS011;53468;48.276;14.416;2023-05-15T05:22:22;10.68;;;6.28;;
66609;SDS011;53468;48.276;14.416;2023-05-15T05:33:49;8.70;;;5.63;;
66609;SDS011;53468;48.276;14.416;2023-05-15T05:39:53;7.88;;;5.47;;
66609;SDS011;53468;48.276;14.416;2023-05-15T05:57:14;6.65;;;4.40;;
66609;SDS011;53468;48.276;14.416;2023-05-15T06:03:14;6.03;;;3.83;;
66609;SDS011;53468;48.276;14.416;2023-05-15T06:08:46;9.00;;;3.47;;
66609;SDS011;53468;48.276;14.416;2023-05-15T06:20:14;7.78;;;4.00;;
66609;SDS011;53468;48.276;14.416;2023-05-15T06:25:43;7.65;;;3.30;;
66609;SDS011;53468;48.276;14.416;2023-05-15T06:36:47;12.07;;;4.63;;
66609;SDS011;53468;48.276;14.416;2023-05-15T06:41:56;8.15;;;4.40;;
66609;SDS011;53468;48.276;14.416;2023-05-15T07:11:09;11.23;;;5.35;;
66609;SDS011;53468;48.276;14.416;2023-05-15T07:16:50;7.82;;;4.10;;
66609;SDS011;53468;48.276;14.416;2023-05-15T07:22:11;6.38;;;3.92;;
66609;SDS011;53468;48.276;14.416;2023-05-15T07:27:35;5.18;;;2.97;;
66609;SDS011;53468;48.276;14.416;2023-05-15T07:32:56;3.33;;;1.88;;
66609;SDS011;53468;48.276;14.416;2023-05-15T07:38:19;2.10;;;1.50;;
66609;SDS011;53468;48.276;14.416;2023-05-15T10:35:19;1.17;;;0.70;;
66609;SDS011;53468;48.276;14.416;2023-05-15T10:46:30;3.88;;;1.23;;
66609;SDS011;53468;48.276;14.416;2023-05-15T11:27:26;3.25;;;1.52;;
66609;SDS011;53468;48.276;14.416;2023-05-15T11:33:12;4.82;;;1.55;;
66609;SDS011;53468;48.276;14.416;2023-05-15T12:01:44;2.58;;;1.20;;
66609;SDS011;53468;48.276;14.416;2023-05-15T12:07:00;3.05;;;1.58;;
66609;SDS011;53468;48.276;14.416;2023-05-15T12:17:41;3.72;;;1.52;;
66609;SDS011;53468;48.276;14.416;2023-05-15T12:22:58;3.47;;;1.77;;
66609;SDS011;53468;48.276;14.416;2023-05-15T12:33:23;1.73;;;0.80;;
66609;SDS011;53468;48.276;14.416;2023-05-15T12:38:26;1.00;;;0.80;;
66609;SDS011;53468;48.276;14.416;2023-05-15T12:43:31;2.22;;;1.10;;
66609;SDS011;53468;48.276;14.416;2023-05-15T12:48:33;1.30;;;0.85;;
66609;SDS011;53468;48.276;14.416;2023-05-15T12:53:40;1.33;;;0.90;;
66609;SDS011;53468;48.276;14.416;2023-05-15T12:58:46;2.35;;;0.98;;
66609;SDS011;53468;48.276;14.416;2023-05-15T13:03:49;1.10;;;0.70;;
66609;SDS011;53468;48.276;14.416;2023-05-15T13:08:52;1.45;;;0.90;;
66609;SDS011;53468;48.276;14.416;2023-05-15T13:13:56;0.95;;;0.60;;
66609;SDS011;53468;48.276;14.416;2023-05-15T13:19:00;2.05;;;0.90;;
66609;SDS011;53468;48.276;14.416;2023-05-15T13:24:03;2.47;;;1.63;;
66609;SDS011;53468;48.276;14.416;2023-05-15T13:29:11;1.55;;;0.90;;
66609;SDS011;53468;48.276;14.416;2023-05-15T13:34:15;1.83;;;0.98;;
66609;SDS011;53468;48.276;14.416;2023-05-15T13:39:18;1.75;;;1.08;;
66609;SDS011;53468;48.276;14.416;2023-05-15T13:44:26;1.20;;;0.85;;
66609;SDS011;53468;48.276;14.416;2023-05-15T13:49:34;3.67;;;2.10;;
66609;SDS011;53468;48.276;14.416;2023-05-15T13:54:37;3.30;;;1.20;;
66609;SDS011;53468;48.276;14.416;2023-05-15T13:59:41;3.53;;;1.40;;
66609;SDS011;53468;48.276;14.416;2023-05-15T14:04:43;2.47;;;1.52;;
66609;SDS011;53468;48.276;14.416;2023-05-15T14:09:47;2.85;;;1.67;;
66609;SDS011;53468;48.276;14.416;2023-05-15T14:14:50;5.03;;;1.80;;
66609;SDS011;53468;48.276;14.416;2023-05-15T14:19:53;3.75;;;2.03;;
66609;SDS011;53468;48.276;14.416;2023-05-15T14:24:55;3.15;;;2.28;;
66609;SDS011;53468;48.276;14.416;2023-05-15T14:30:00;3.15;;;2.30;;
66609;SDS011;53468;48.276;14.416;2023-05-15T14:35:04;2.65;;;2.00;;
66609;SDS011;53468;48.276;14.416;2023-05-15T14:40:07;3.97;;;2.00;;
66609;SDS011;53468;48.276;14.416;2023-05-15T14:45:12;3.58;;;1.95;;
66609;SDS011;53468;48.276;14.416;2023-05-15T14:50:14;4.68;;;2.58;;
66609;SDS011;53468;48.276;14.416;2023-05-15T14:55:17;3.13;;;1.90;;
66609;SDS011;53468;48.276;14.416;2023-05-15T15:00:23;4.10;;;2.00;;
66609;SDS011;53468;48.276;14.416;2023-05-15T15:05:27;3.63;;;2.45;;
66609;SDS011;53468;48.276;14.416;2023-05-15T15:10:32;3.55;;;2.17;;
66609;SDS011;53468;48.276;14.416;2023-05-15T15:15:41;2.67;;;1.65;;
66609;SDS011;53468;48.276;14.416;2023-05-15T15:20:46;3.67;;;2.28;;
66609;SDS011;53468;48.276;14.416;2023-05-15T15:26:28;3.67;;;2.28;;
66609;SDS011;53468;48.276;14.416;2023-05-15T15:31:50;4.18;;;2.40;;
66609;SDS011;53468;48.276;14.416;2023-05-15T15:37:29;3.03;;;1.97;;
66609;SDS011;53468;48.276;14.416;2023-05-15T15:42:47;3.88;;;2.10;;
66609;SDS011;53468;48.276;14.416;2023-05-15T15:47:55;3.55;;;2.50;;
66609;SDS011;53468;48.276;14.416;2023-05-15T15:53:00;3.75;;;2.10;;
66609;SDS011;53468;48.276;14.416;2023-05-15T15:58:04;3.03;;;1.75;;
66609;SDS011;53468;48.276;14.416;2023-05-15T16:03:17;4.25;;;2.00;;
66609;SDS011;53468;48.276;14.416;2023-05-15T16:08:19;5.47;;;2.50;;
66609;SDS011;53468;48.276;14.416;2023-05-15T16:13:23;3.55;;;2.08;;
66609;SDS011;53468;48.276;14.416;2023-05-15T16:18:53;3.92;;;2.38;;
66609;SDS011;53468;48.276;14.416;2023-05-15T16:23:56;4.28;;;2.10;;
66609;SDS011;53468;48.276;14.416;2023-05-15T16:29:00;4.80;;;2.80;;
66609;SDS011;53468;48.276;14.416;2023-05-15T16:34:04;4.15;;;2.72;;
66609;SDS011;53468;48.276;14.416;2023-05-15T16:39:06;4.68;;;2.80;;
66609;SDS011;53468;48.276;14.416;2023-05-15T16:44:09;4.57;;;2.75;;
66609;SDS011;53468;48.276;14.416;2023-05-15T16:49:13;4.55;;;2.63;;
66609;SDS011;53468;48.276;14.416;2023-05-15T16:54:15;3.63;;;2.33;;
66609;SDS011;53468;48.276;14.416;2023-05-15T16:59:17;7.20;;;2.97;;
66609;SDS011;53468;48.276;14.416;2023-05-15T17:04:22;5.47;;;3.00;;
66609;SDS011;53468;48.276;14.416;2023-05-15T17:09:25;5.68;;;3.88;;
66609;SDS011;53468;48.276;14.416;2023-05-15T17:14:30;5.43;;;3.10;;
66609;SDS011;53468;48.276;14.416;2023-05-15T17:19:34;3.00;;;1.98;;
66609;SDS011;53468;48.276;14.416;2023-05-15T17:24:36;2.83;;;1.70;;
66609;SDS011;53468;48.276;14.416;2023-05-15T17:29:38;3.30;;;2.17;;
66609;SDS011;53468;48.276;14.416;2023-05-15T17:34:42;3.47;;;1.80;;
66609;SDS011;53468;48.276;14.416;2023-05-15T17:39:45;3.03;;;2.08;;
66609;SDS011;53468;48.276;14.416;2023-05-15T17:44:48;4.28;;;2.60;;
66609;SDS011;53468;48.276;14.416;2023-05-15T17:49:57;5.07;;;2.28;;
66609;SDS011;53468;48.276;14.416;2023-05-15T17:54:59;3.47;;;2.22;;
66609;SDS011;53468;48.276;14.416;2023-05-15T18:00:01;4.38;;;2.47;;
66609;SDS011;53468;48.276;14.416;2023-05-15T18:05:09;3.75;;;2.67;;
66609;SDS011;53468;48.276;14.416;2023-05-15T18:10:12;5.40;;;3.28;;
66609;SDS011;53468;48.276;14.416;2023-05-15T18:15:22;7.00;;;3.63;;
66609;SDS011;53468;48.276;14.416;2023-05-15T18:20:27;6.00;;;3.63;;
66609;SDS011;53468;48.276;14.416;2023-05-15T18:25:30;6.25;;;3.13;;
66609;SDS011;53468;48.276;14.416;2023-05-15T18:30:35;6.00;;;3.70;;
66609;SDS011;53468;48.276;14.416;2023-05-15T18:35:45;5.97;;;3.72;;
66609;SDS011;53468;48.276;14.416;2023-05-15T18:40:48;8.50;;;4.47;;
66609;SDS011;53468;48.276;14.416;2023-05-15T18:45:54;7.57;;;4.75;;
66609;SDS011;53468;48.276;14.416;2023-05-15T21:08:02;10.80;;;6.30;;
66609;SDS011;53468;48.276;14.416;2023-05-15T21:13:49;8.90;;;5.88;;
66609;SDS011;53468;48.276;14.416;2023-05-15T21:18:55;12.88;;;7.43;;
66609;SDS011;53468;48.276;14.416;2023-05-15T21:24:08;10.48;;;6.63;;
66609;SDS011;53468;48.276;14.416;2023-05-15T21:29:27;7.82;;;5.45;;
66609;SDS011;53468;48.276;14.416;2023-05-15T21:34:39;10.43;;;7.13;;
66609;SDS011;53468;48.276;14.416;2023-05-15T21:40:09;8.95;;;5.97;;
66609;SDS011;53468;48.276;14.416;2023-05-15T21:45:23;10.18;;;5.78;;
66609;SDS011;53468;48.276;14.416;2023-05-15T21:50:49;14.70;;;5.45;;
66609;SDS011;53468;48.276;14.416;2023-05-15T21:56:02;17.95;;;4.93;;
66609;SDS011;53468;48.276;14.416;2023-05-15T22:01:21;7.75;;;4.90;;
66609;SDS011;53468;48.276;14.416;2023-05-15T22:07:06;17.90;;;7.50;;
